sensor_id;sensor_type;location;lat;lon;timestamp;temperature;humidity
21801;DHT22;11062;51.164;16.924;2022-09-09T00:02:15;36.90;43.40
21801;DHT22;11062;51.164;16.924;2022-09-09T00:04:53;36.90;43.40
21801;DHT22;11062;51.164;16.924;2022-09-09T00:07:43;36.80;43.40
21801;DHT22;11062;51.164;16.924;2022-09-09T00:13:13;36.60;43.50
21801;DHT22;11062;51.164;16.924;2022-09-09T00:15:57;36.40;43.70
21801;DHT22;11062;51.164;16.924;2022-09-09T00:21:07;36.30;43.90
21801;DHT22;11062;51.164;16.924;2022-09-09T00:23:45;36.40;44.00
21801;DHT22;11062;51.164;16.924;2022-09-09T00:26:25;36.40;43.60
21801;DHT22;11062;51.164;16.924;2022-09-09T00:29:14;36.50;43.60
21801;DHT22;11062;51.164;16.924;2022-09-09T00:31:44;36.40;43.50
21801;DHT22;11062;51.164;16.924;2022-09-09T00:34:20;36.30;43.00
21801;DHT22;11062;51.164;16.924;2022-09-09T00:36:49;36.40;43.50
21801;DHT22;11062;51.164;16.924;2022-09-09T00:39:31;36.20;43.40
21801;DHT22;11062;51.164;16.924;2022-09-09T00:42:20;36.30;43.40
21801;DHT22;11062;51.164;16.924;2022-09-09T00:50:17;36.10;43.20
21801;DHT22;11062;51.164;16.924;2022-09-09T00:55:39;36.00;43.20
21801;DHT22;11062;51.164;16.924;2022-09-09T00:58:08;36.00;43.30
21801;DHT22;11062;51.164;16.924;2022-09-09T01:00:50;36.00;43.50
21801;DHT22;11062;51.164;16.924;2022-09-09T01:03:57;36.00;43.30
21801;DHT22;11062;51.164;16.924;2022-09-09T01:06:37;35.80;43.90
21801;DHT22;11062;51.164;16.924;2022-09-09T01:14:32;35.80;43.20
21801;DHT22;11062;51.164;16.924;2022-09-09T01:17:25;35.80;43.40
21801;DHT22;11062;51.164;16.924;2022-09-09T01:22:57;35.80;43.40
21801;DHT22;11062;51.164;16.924;2022-09-09T01:28:13;35.80;43.50
21801;DHT22;11062;51.164;16.924;2022-09-09T01:30:41;35.80;43.30
21801;DHT22;11062;51.164;16.924;2022-09-09T01:33:15;35.80;43.30
21801;DHT22;11062;51.164;16.924;2022-09-09T01:38:14;35.90;42.90
21801;DHT22;11062;51.164;16.924;2022-09-09T01:40:40;35.80;42.30
21801;DHT22;11062;51.164;16.924;2022-09-09T01:43:06;35.70;41.80
21801;DHT22;11062;51.164;16.924;2022-09-09T01:45:33;35.60;41.70
21801;DHT22;11062;51.164;16.924;2022-09-09T01:47:59;35.60;41.70
21801;DHT22;11062;51.164;16.924;2022-09-09T01:50:26;35.60;41.50
21801;DHT22;11062;51.164;16.924;2022-09-09T01:52:58;35.60;41.90
21801;DHT22;11062;51.164;16.924;2022-09-09T01:55:39;35.60;42.50
21801;DHT22;11062;51.164;16.924;2022-09-09T01:58:29;35.60;42.00
21801;DHT22;11062;51.164;16.924;2022-09-09T02:01:04;35.60;41.50
21801;DHT22;11062;51.164;16.924;2022-09-09T02:03:32;35.50;41.40
21801;DHT22;11062;51.164;16.924;2022-09-09T02:06:35;35.50;41.50
21801;DHT22;11062;51.164;16.924;2022-09-09T02:09:05;35.40;41.30
21801;DHT22;11062;51.164;16.924;2022-09-09T02:11:33;35.40;41.80
21801;DHT22;11062;51.164;16.924;2022-09-09T02:14:08;35.30;41.60
21801;DHT22;11062;51.164;16.924;2022-09-09T02:17:25;35.30;41.90
21801;DHT22;11062;51.164;16.924;2022-09-09T02:19:52;35.40;41.90
21801;DHT22;11062;51.164;16.924;2022-09-09T02:22:22;35.30;42.80
21801;DHT22;11062;51.164;16.924;2022-09-09T02:24:50;35.30;42.50
21801;DHT22;11062;51.164;16.924;2022-09-09T02:27:20;35.30;42.90
21801;DHT22;11062;51.164;16.924;2022-09-09T02:29:49;35.30;42.30
21801;DHT22;11062;51.164;16.924;2022-09-09T02:32:19;35.30;42.00
21801;DHT22;11062;51.164;16.924;2022-09-09T02:34:52;35.30;41.50
21801;DHT22;11062;51.164;16.924;2022-09-09T02:37:21;35.40;41.20
21801;DHT22;11062;51.164;16.924;2022-09-09T02:39:50;35.30;41.20
21801;DHT22;11062;51.164;16.924;2022-09-09T02:42:16;35.30;41.30
21801;DHT22;11062;51.164;16.924;2022-09-09T02:44:43;35.40;41.40
21801;DHT22;11062;51.164;16.924;2022-09-09T02:50:06;35.40;41.00
21801;DHT22;11062;51.164;16.924;2022-09-09T02:57:47;35.50;40.60
21801;DHT22;11062;51.164;16.924;2022-09-09T03:00:14;35.50;40.30
21801;DHT22;11062;51.164;16.924;2022-09-09T03:02:40;35.50;40.30
21801;DHT22;11062;51.164;16.924;2022-09-09T03:05:08;35.40;40.20
21801;DHT22;11062;51.164;16.924;2022-09-09T03:07:34;35.40;40.00
21801;DHT22;11062;51.164;16.924;2022-09-09T03:10:00;35.40;40.00
21801;DHT22;11062;51.164;16.924;2022-09-09T03:12:26;35.40;40.10
21801;DHT22;11062;51.164;16.924;2022-09-09T03:14:52;35.30;40.30
21801;DHT22;11062;51.164;16.924;2022-09-09T03:17:18;35.30;40.00
21801;DHT22;11062;51.164;16.924;2022-09-09T03:19:44;35.30;40.30
21801;DHT22;11062;51.164;16.924;2022-09-09T03:22:10;35.30;40.40
21801;DHT22;11062;51.164;16.924;2022-09-09T03:24:37;35.30;40.30
21801;DHT22;11062;51.164;16.924;2022-09-09T03:27:03;35.20;40.20
21801;DHT22;11062;51.164;16.924;2022-09-09T03:29:29;35.30;40.00
21801;DHT22;11062;51.164;16.924;2022-09-09T03:31:54;35.20;40.00
21801;DHT22;11062;51.164;16.924;2022-09-09T03:34:21;35.20;40.10
21801;DHT22;11062;51.164;16.924;2022-09-09T03:36:47;35.20;39.50
21801;DHT22;11062;51.164;16.924;2022-09-09T03:39:14;35.30;39.90
21801;DHT22;11062;51.164;16.924;2022-09-09T03:41:41;35.20;39.80
21801;DHT22;11062;51.164;16.924;2022-09-09T03:44:12;35.20;39.50
21801;DHT22;11062;51.164;16.924;2022-09-09T03:46:38;35.10;39.80
21801;DHT22;11062;51.164;16.924;2022-09-09T03:49:04;35.00;39.80
21801;DHT22;11062;51.164;16.924;2022-09-09T03:51:30;35.00;40.00
21801;DHT22;11062;51.164;16.924;2022-09-09T03:53:59;35.00;40.40
21801;DHT22;11062;51.164;16.924;2022-09-09T03:56:58;34.90;40.50
21801;DHT22;11062;51.164;16.924;2022-09-09T04:02:50;34.90;40.20
21801;DHT22;11062;51.164;16.924;2022-09-09T04:05:44;34.90;39.80
21801;DHT22;11062;51.164;16.924;2022-09-09T04:08:48;34.90;39.70
21801;DHT22;11062;51.164;16.924;2022-09-09T04:11:20;34.90;39.60
21801;DHT22;11062;51.164;16.924;2022-09-09T04:14:10;34.80;39.90
21801;DHT22;11062;51.164;16.924;2022-09-09T04:16:36;34.80;40.70
21801;DHT22;11062;51.164;16.924;2022-09-09T04:19:04;34.80;40.40
21801;DHT22;11062;51.164;16.924;2022-09-09T04:21:41;34.70;39.80
21801;DHT22;11062;51.164;16.924;2022-09-09T04:24:31;34.70;40.00
21801;DHT22;11062;51.164;16.924;2022-09-09T04:27:13;34.70;39.70
21801;DHT22;11062;51.164;16.924;2022-09-09T04:29:44;34.80;39.80
21801;DHT22;11062;51.164;16.924;2022-09-09T04:32:17;34.70;39.70
21801;DHT22;11062;51.164;16.924;2022-09-09T04:34:54;34.80;39.40
21801;DHT22;11062;51.164;16.924;2022-09-09T04:37:23;34.80;39.60
21801;DHT22;11062;51.164;16.924;2022-09-09T04:39:50;34.80;39.60
21801;DHT22;11062;51.164;16.924;2022-09-09T04:42:16;34.80;40.40
21801;DHT22;11062;51.164;16.924;2022-09-09T04:44:45;34.80;39.50
21801;DHT22;11062;51.164;16.924;2022-09-09T04:47:11;34.80;39.50
21801;DHT22;11062;51.164;16.924;2022-09-09T04:49:41;34.80;39.70
21801;DHT22;11062;51.164;16.924;2022-09-09T04:52:08;34.80;39.60
21801;DHT22;11062;51.164;16.924;2022-09-09T04:54:35;34.80;39.80
21801;DHT22;11062;51.164;16.924;2022-09-09T04:57:01;34.80;39.80
21801;DHT22;11062;51.164;16.924;2022-09-09T05:10:38;34.90;40.60
21801;DHT22;11062;51.164;16.924;2022-09-09T05:15:40;35.00;40.90
21801;DHT22;11062;51.164;16.924;2022-09-09T05:18:11;35.00;40.70
21801;DHT22;11062;51.164;16.924;2022-09-09T05:20:40;35.00;40.70
21801;DHT22;11062;51.164;16.924;2022-09-09T05:23:08;35.10;40.60
21801;DHT22;11062;51.164;16.924;2022-09-09T05:25:36;35.20;40.70
21801;DHT22;11062;51.164;16.924;2022-09-09T05:28:02;35.20;40.80
21801;DHT22;11062;51.164;16.924;2022-09-09T05:30:28;35.20;41.10
21801;DHT22;11062;51.164;16.924;2022-09-09T05:32:56;35.30;41.10
21801;DHT22;11062;51.164;16.924;2022-09-09T05:35:22;35.40;41.20
21801;DHT22;11062;51.164;16.924;2022-09-09T05:37:48;35.40;41.30
21801;DHT22;11062;51.164;16.924;2022-09-09T05:40:14;35.50;41.50
21801;DHT22;11062;51.164;16.924;2022-09-09T05:42:40;35.50;41.30
21801;DHT22;11062;51.164;16.924;2022-09-09T05:45:08;35.60;41.30
21801;DHT22;11062;51.164;16.924;2022-09-09T05:47:36;35.60;41.40
21801;DHT22;11062;51.164;16.924;2022-09-09T05:50:03;35.70;41.80
21801;DHT22;11062;51.164;16.924;2022-09-09T05:52:30;35.70;41.60
21801;DHT22;11062;51.164;16.924;2022-09-09T05:54:56;35.80;41.60
21801;DHT22;11062;51.164;16.924;2022-09-09T05:57:22;35.80;41.70
21801;DHT22;11062;51.164;16.924;2022-09-09T05:59:48;35.90;41.80
21801;DHT22;11062;51.164;16.924;2022-09-09T06:02:15;35.90;41.70
21801;DHT22;11062;51.164;16.924;2022-09-09T06:04:42;36.00;42.00
21801;DHT22;11062;51.164;16.924;2022-09-09T06:07:07;36.00;42.60
21801;DHT22;11062;51.164;16.924;2022-09-09T06:09:33;36.10;42.80
21801;DHT22;11062;51.164;16.924;2022-09-09T06:11:59;36.10;43.00
21801;DHT22;11062;51.164;16.924;2022-09-09T06:14:25;36.10;43.40
21801;DHT22;11062;51.164;16.924;2022-09-09T06:16:52;36.20;43.10
21801;DHT22;11062;51.164;16.924;2022-09-09T06:19:18;36.20;43.30
21801;DHT22;11062;51.164;16.924;2022-09-09T06:21:45;36.20;42.70
21801;DHT22;11062;51.164;16.924;2022-09-09T06:24:11;36.00;42.30
21801;DHT22;11062;51.164;16.924;2022-09-09T06:26:39;36.00;43.00
21801;DHT22;11062;51.164;16.924;2022-09-09T06:29:06;35.90;43.50
21801;DHT22;11062;51.164;16.924;2022-09-09T06:31:34;35.80;43.60
21801;DHT22;11062;51.164;16.924;2022-09-09T06:34:01;35.80;43.20
21801;DHT22;11062;51.164;16.924;2022-09-09T06:36:30;35.80;44.20
21801;DHT22;11062;51.164;16.924;2022-09-09T06:38:56;35.80;43.80
21801;DHT22;11062;51.164;16.924;2022-09-09T09:27:18;39.30;38.20
21801;DHT22;11062;51.164;16.924;2022-09-09T09:29:48;39.50;38.10
21801;DHT22;11062;51.164;16.924;2022-09-09T09:32:18;39.30;36.80
21801;DHT22;11062;51.164;16.924;2022-09-09T09:34:54;39.40;36.50
21801;DHT22;11062;51.164;16.924;2022-09-09T09:37:33;39.50;37.60
21801;DHT22;11062;51.164;16.924;2022-09-09T09:40:15;39.20;37.70
21801;DHT22;11062;51.164;16.924;2022-09-09T09:42:57;39.40;37.10
21801;DHT22;11062;51.164;16.924;2022-09-09T09:45:41;39.70;37.30
21801;DHT22;11062;51.164;16.924;2022-09-09T09:48:12;39.80;36.70
21801;DHT22;11062;51.164;16.924;2022-09-09T09:50:53;40.10;36.70
21801;DHT22;11062;51.164;16.924;2022-09-09T09:53:23;40.50;36.30
21801;DHT22;11062;51.164;16.924;2022-09-09T09:56:10;40.80;36.10
21801;DHT22;11062;51.164;16.924;2022-09-09T10:01:25;40.90;34.90
21801;DHT22;11062;51.164;16.924;2022-09-09T10:03:58;40.80;33.80
21801;DHT22;11062;51.164;16.924;2022-09-09T10:06:32;40.80;34.30
21801;DHT22;11062;51.164;16.924;2022-09-09T10:08:59;40.80;35.00
21801;DHT22;11062;51.164;16.924;2022-09-09T10:11:47;40.80;35.00
21801;DHT22;11062;51.164;16.924;2022-09-09T10:14:39;40.90;34.70
21801;DHT22;11062;51.164;16.924;2022-09-09T10:23:24;40.80;34.90
21801;DHT22;11062;51.164;16.924;2022-09-09T10:26:24;40.70;34.70
21801;DHT22;11062;51.164;16.924;2022-09-09T10:29:22;40.60;34.60
21801;DHT22;11062;51.164;16.924;2022-09-09T10:32:09;40.60;35.00
21801;DHT22;11062;51.164;16.924;2022-09-09T10:43:35;41.00;34.80
21801;DHT22;11062;51.164;16.924;2022-09-09T10:46:42;41.20;34.70
21801;DHT22;11062;51.164;16.924;2022-09-09T10:57:47;42.00;33.20
21801;DHT22;11062;51.164;16.924;2022-09-09T11:00:22;42.20;34.60
21801;DHT22;11062;51.164;16.924;2022-09-09T11:02:58;42.30;33.60
21801;DHT22;11062;51.164;16.924;2022-09-09T11:08:21;42.80;34.80
21801;DHT22;11062;51.164;16.924;2022-09-09T11:14:12;42.90;32.60
21801;DHT22;11062;51.164;16.924;2022-09-09T11:16:50;43.00;32.10
21801;DHT22;11062;51.164;16.924;2022-09-09T11:19:25;43.20;32.00
21801;DHT22;11062;51.164;16.924;2022-09-09T11:21:57;43.30;32.40
21801;DHT22;11062;51.164;16.924;2022-09-09T11:24:37;43.30;31.50
21801;DHT22;11062;51.164;16.924;2022-09-09T11:27:26;43.30;31.30
21801;DHT22;11062;51.164;16.924;2022-09-09T11:35:34;43.40;32.10
21801;DHT22;11062;51.164;16.924;2022-09-09T11:41:08;43.30;30.80
21801;DHT22;11062;51.164;16.924;2022-09-09T11:43:51;43.30;30.80
21801;DHT22;11062;51.164;16.924;2022-09-09T11:46:22;43.30;31.90
21801;DHT22;11062;51.164;16.924;2022-09-09T11:49:21;43.10;30.90
21801;DHT22;11062;51.164;16.924;2022-09-09T11:51:51;42.90;31.10
21801;DHT22;11062;51.164;16.924;2022-09-09T11:54:49;42.90;30.80
21801;DHT22;11062;51.164;16.924;2022-09-09T11:57:34;43.40;31.00
21801;DHT22;11062;51.164;16.924;2022-09-09T12:00:02;43.60;31.20
21801;DHT22;11062;51.164;16.924;2022-09-09T12:02:32;43.70;30.80
21801;DHT22;11062;51.164;16.924;2022-09-09T12:05:05;43.90;31.40
21801;DHT22;11062;51.164;16.924;2022-09-09T12:07:56;44.10;30.70
21801;DHT22;11062;51.164;16.924;2022-09-09T12:10:30;44.10;30.60
21801;DHT22;11062;51.164;16.924;2022-09-09T12:13:19;44.00;30.70
21801;DHT22;11062;51.164;16.924;2022-09-09T12:15:54;43.90;31.00
21801;DHT22;11062;51.164;16.924;2022-09-09T12:18:24;43.70;30.90
21801;DHT22;11062;51.164;16.924;2022-09-09T12:21:06;43.50;30.70
21801;DHT22;11062;51.164;16.924;2022-09-09T12:23:40;43.40;31.00
21801;DHT22;11062;51.164;16.924;2022-09-09T12:31:44;43.20;30.90
21801;DHT22;11062;51.164;16.924;2022-09-09T12:34:17;43.00;31.20
21801;DHT22;11062;51.164;16.924;2022-09-09T12:37:12;42.90;31.50
21801;DHT22;11062;51.164;16.924;2022-09-09T12:39:47;43.00;30.90
21801;DHT22;11062;51.164;16.924;2022-09-09T12:42:22;43.20;31.20
21801;DHT22;11062;51.164;16.924;2022-09-09T12:45:03;43.30;32.00
21801;DHT22;11062;51.164;16.924;2022-09-09T12:50:25;43.80;31.20
21801;DHT22;11062;51.164;16.924;2022-09-09T12:53:04;44.10;30.20
21801;DHT22;11062;51.164;16.924;2022-09-09T12:56:17;44.20;30.30
21801;DHT22;11062;51.164;16.924;2022-09-09T13:01:40;43.90;29.60
21801;DHT22;11062;51.164;16.924;2022-09-09T13:04:35;44.20;30.20
21801;DHT22;11062;51.164;16.924;2022-09-09T13:07:11;44.60;29.70
21801;DHT22;11062;51.164;16.924;2022-09-09T13:09:58;44.70;29.80
21801;DHT22;11062;51.164;16.924;2022-09-09T13:12:39;44.90;29.30
21801;DHT22;11062;51.164;16.924;2022-09-09T13:15:24;45.10;28.90
21801;DHT22;11062;51.164;16.924;2022-09-09T13:18:52;45.50;29.10
21801;DHT22;11062;51.164;16.924;2022-09-09T13:28:18;46.20;29.40
21801;DHT22;11062;51.164;16.924;2022-09-09T13:31:19;46.50;28.40
21801;DHT22;11062;51.164;16.924;2022-09-09T13:34:12;46.70;27.60
21801;DHT22;11062;51.164;16.924;2022-09-09T13:37:09;46.90;28.00
21801;DHT22;11062;51.164;16.924;2022-09-09T13:40:29;47.00;28.30
21801;DHT22;11062;51.164;16.924;2022-09-09T13:43:25;47.40;27.50
21801;DHT22;11062;51.164;16.924;2022-09-09T13:57:57;47.30;27.20
21801;DHT22;11062;51.164;16.924;2022-09-09T14:00:23;47.50;27.90
21801;DHT22;11062;51.164;16.924;2022-09-09T14:02:50;47.70;27.30
21801;DHT22;11062;51.164;16.924;2022-09-09T14:05:18;47.90;27.50
21801;DHT22;11062;51.164;16.924;2022-09-09T14:07:44;48.00;27.20
21801;DHT22;11062;51.164;16.924;2022-09-09T14:10:11;48.00;27.20
21801;DHT22;11062;51.164;16.924;2022-09-09T14:12:37;48.00;27.30
21801;DHT22;11062;51.164;16.924;2022-09-09T14:15:05;47.90;26.60
21801;DHT22;11062;51.164;16.924;2022-09-09T14:17:32;48.10;26.70
21801;DHT22;11062;51.164;16.924;2022-09-09T14:19:58;48.20;26.40
21801;DHT22;11062;51.164;16.924;2022-09-09T14:22:24;48.10;26.30
21801;DHT22;11062;51.164;16.924;2022-09-09T14:24:52;48.10;26.50
21801;DHT22;11062;51.164;16.924;2022-09-09T14:27:18;47.90;26.30
21801;DHT22;11062;51.164;16.924;2022-09-09T14:29:46;47.70;26.70
21801;DHT22;11062;51.164;16.924;2022-09-09T14:32:12;47.70;26.70
21801;DHT22;11062;51.164;16.924;2022-09-09T14:34:38;47.40;26.70
21801;DHT22;11062;51.164;16.924;2022-09-09T14:48:35;46.40;29.00
21801;DHT22;11062;51.164;16.924;2022-09-09T14:51:12;46.40;29.00
21801;DHT22;11062;51.164;16.924;2022-09-09T14:54:31;46.20;29.50
21801;DHT22;11062;51.164;16.924;2022-09-09T14:57:55;46.10;29.60
21801;DHT22;11062;51.164;16.924;2022-09-09T15:01:27;46.00;29.20
21801;DHT22;11062;51.164;16.924;2022-09-09T15:04:40;45.90;29.70
21801;DHT22;11062;51.164;16.924;2022-09-09T15:07:45;45.70;29.70
21801;DHT22;11062;51.164;16.924;2022-09-09T15:10:26;45.60;30.20
21801;DHT22;11062;51.164;16.924;2022-09-09T15:13:58;45.40;30.60
21801;DHT22;11062;51.164;16.924;2022-09-09T15:16:55;45.20;30.60
21801;DHT22;11062;51.164;16.924;2022-09-09T15:20:10;45.00;31.20
21801;DHT22;11062;51.164;16.924;2022-09-09T15:23:36;45.00;31.20
21801;DHT22;11062;51.164;16.924;2022-09-09T15:29:48;44.90;31.30
21801;DHT22;11062;51.164;16.924;2022-09-09T15:32:42;44.90;31.50
21801;DHT22;11062;51.164;16.924;2022-09-09T15:35:08;44.80;31.80
21801;DHT22;11062;51.164;16.924;2022-09-09T15:56:17;43.80;34.10
21801;DHT22;11062;51.164;16.924;2022-09-09T15:59:56;43.60;34.60
21801;DHT22;11062;51.164;16.924;2022-09-09T16:07:55;42.90;35.20
21801;DHT22;11062;51.164;16.924;2022-09-09T16:10:23;42.90;35.90
21801;DHT22;11062;51.164;16.924;2022-09-09T16:12:50;42.80;36.00
21801;DHT22;11062;51.164;16.924;2022-09-09T16:15:17;42.80;36.60
21801;DHT22;11062;51.164;16.924;2022-09-09T16:17:48;42.70;36.00
21801;DHT22;11062;51.164;16.924;2022-09-09T16:20:28;42.60;36.20
21801;DHT22;11062;51.164;16.924;2022-09-09T16:23:08;42.50;36.50
21801;DHT22;11062;51.164;16.924;2022-09-09T16:25:38;42.50;36.90
21801;DHT22;11062;51.164;16.924;2022-09-09T16:28:07;42.40;37.10
21801;DHT22;11062;51.164;16.924;2022-09-09T16:30:50;42.40;37.00
21801;DHT22;11062;51.164;16.924;2022-09-09T16:33:22;42.40;37.00
21801;DHT22;11062;51.164;16.924;2022-09-09T16:35:52;42.20;36.70
21801;DHT22;11062;51.164;16.924;2022-09-09T16:38:21;42.00;37.10
21801;DHT22;11062;51.164;16.924;2022-09-09T16:40:59;41.60;37.30
21801;DHT22;11062;51.164;16.924;2022-09-09T16:54:33;41.20;36.50
21801;DHT22;11062;51.164;16.924;2022-09-09T17:02:45;41.20;36.20
21801;DHT22;11062;51.164;16.924;2022-09-09T18:45:25;39.60;38.10
21801;DHT22;11062;51.164;16.924;2022-09-09T18:52:36;39.70;38.10
21801;DHT22;11062;51.164;16.924;2022-09-09T18:56:10;39.70;38.00
21801;DHT22;11062;51.164;16.924;2022-09-09T19:00:07;39.60;37.90
21801;DHT22;11062;51.164;16.924;2022-09-09T19:07:07;39.20;39.10
21801;DHT22;11062;51.164;16.924;2022-09-09T19:33:40;39.00;40.00
21801;DHT22;11062;51.164;16.924;2022-09-09T19:40:35;38.90;40.20
21801;DHT22;11062;51.164;16.924;2022-09-09T20:05:03;38.80;40.00
21801;DHT22;11062;51.164;16.924;2022-09-09T21:46:15;36.90;41.50
21801;DHT22;11062;51.164;16.924;2022-09-09T21:49:02;36.80;42.40
21801;DHT22;11062;51.164;16.924;2022-09-09T21:52:00;36.30;42.90
21801;DHT22;11062;51.164;16.924;2022-09-09T22:02:04;36.10;43.90
21801;DHT22;11062;51.164;16.924;2022-09-09T22:04:48;36.10;43.90
21801;DHT22;11062;51.164;16.924;2022-09-09T22:10:18;35.80;43.50
21801;DHT22;11062;51.164;16.924;2022-09-09T22:13:42;35.50;43.80
21801;DHT22;11062;51.164;16.924;2022-09-09T22:16:14;35.40;43.80
21801;DHT22;11062;51.164;16.924;2022-09-09T22:18:41;35.00;44.90
21801;DHT22;11062;51.164;16.924;2022-09-09T22:21:12;34.90;45.10
21801;DHT22;11062;51.164;16.924;2022-09-09T22:23:38;35.00;45.50
21801;DHT22;11062;51.164;16.924;2022-09-09T22:26:05;34.40;46.00
21801;DHT22;11062;51.164;16.924;2022-09-09T22:28:32;34.10;46.90
21801;DHT22;11062;51.164;16.924;2022-09-09T22:30:58;34.00;47.40
21801;DHT22;11062;51.164;16.924;2022-09-09T22:33:24;34.20;47.90
21801;DHT22;11062;51.164;16.924;2022-09-09T22:35:51;34.00;48.10
21801;DHT22;11062;51.164;16.924;2022-09-09T22:38:17;34.30;48.40
21801;DHT22;11062;51.164;16.924;2022-09-09T22:40:43;34.30;48.30
21801;DHT22;11062;51.164;16.924;2022-09-09T22:43:16;34.10;48.30
21801;DHT22;11062;51.164;16.924;2022-09-09T22:45:44;34.40;48.70
21801;DHT22;11062;51.164;16.924;2022-09-09T22:48:11;34.70;48.70
21801;DHT22;11062;51.164;16.924;2022-09-09T22:50:40;34.80;48.00
21801;DHT22;11062;51.164;16.924;2022-09-09T22:53:12;34.90;48.00
21801;DHT22;11062;51.164;16.924;2022-09-09T22:55:38;35.00;47.80
21801;DHT22;11062;51.164;16.924;2022-09-09T22:58:04;34.90;47.70
21801;DHT22;11062;51.164;16.924;2022-09-09T23:00:31;34.80;48.00
21801;DHT22;11062;51.164;16.924;2022-09-09T23:02:57;35.30;47.80
21801;DHT22;11062;51.164;16.924;2022-09-09T23:05:22;35.30;47.60
21801;DHT22;11062;51.164;16.924;2022-09-09T23:07:50;35.50;47.50
21801;DHT22;11062;51.164;16.924;2022-09-09T23:10:17;35.50;47.10
21801;DHT22;11062;51.164;16.924;2022-09-09T23:12:44;35.70;47.00
21801;DHT22;11062;51.164;16.924;2022-09-09T23:15:10;35.80;46.90
21801;DHT22;11062;51.164;16.924;2022-09-09T23:17:37;35.60;46.60
21801;DHT22;11062;51.164;16.924;2022-09-09T23:20:05;35.70;46.90
21801;DHT22;11062;51.164;16.924;2022-09-09T23:22:31;35.50;46.50
21801;DHT22;11062;51.164;16.924;2022-09-09T23:25:01;35.60;47.10
21801;DHT22;11062;51.164;16.924;2022-09-09T23:27:27;35.40;47.00
21801;DHT22;11062;51.164;16.924;2022-09-09T23:29:54;35.40;47.00
21801;DHT22;11062;51.164;16.924;2022-09-09T23:32:21;35.50;47.10
21801;DHT22;11062;51.164;16.924;2022-09-09T23:34:48;35.60;47.00
21801;DHT22;11062;51.164;16.924;2022-09-09T23:37:15;35.60;46.50
21801;DHT22;11062;51.164;16.924;2022-09-09T23:39:41;35.50;46.50
21801;DHT22;11062;51.164;16.924;2022-09-09T23:42:08;35.50;46.50
21801;DHT22;11062;51.164;16.924;2022-09-09T23:44:35;35.70;46.50
21801;DHT22;11062;51.164;16.924;2022-09-09T23:47:03;35.60;46.00
21801;DHT22;11062;51.164;16.924;2022-09-09T23:49:34;35.60;46.40
21801;DHT22;11062;51.164;16.924;2022-09-09T23:52:01;35.30;46.30
21801;DHT22;11062;51.164;16.924;2022-09-09T23:54:30;35.50;46.30
21801;DHT22;11062;51.164;16.924;2022-09-09T23:56:55;35.50;46.00
21801;DHT22;11062;51.164;16.924;2022-09-09T23:59:21;35.30;46.10
